Time;durP1;ratioP1;P1;durP2;ratioP2;P2;SDS_P1;SDS_P2;PMS_P1;PMS_P2;Temp;Humidity;BMP_temperature;BMP_pressure;BME280_temperature;BME280_humidity;BME280_pressure;Samples;Min_cycle;Max_cycle;Signal;HPM_P1;HPM_P2
2023/07/06 00:01:05;;;;;;;14.00;6.60;;;;;;;13.37;100.00;101238.09;6219443;23;20159;-77
2023/07/06 00:03:31;;;;;;;11.68;6.15;;;;;;;13.40;100.00;101257.09;6219792;23;20305;-77
2023/07/06 00:05:57;;;;;;;12.35;6.25;;;;;;;13.40;100.00;101249.72;6194403;23;20008;-76
2023/07/06 00:08:24;;;;;;;11.57;6.88;;;;;;;13.41;100.00;101245.97;6247082;23;20012;-77
2023/07/06 00:10:49;;;;;;;15.77;6.38;;;;;;;13.40;100.00;101257.97;6246732;23;20019;-77
2023/07/06 00:13:16;;;;;;;8.93;5.30;;;;;;;13.36;100.00;101251.00;6245895;23;20039;-77
2023/07/06 00:15:44;;;;;;;11.35;6.32;;;;;;;13.26;100.00;101244.47;6246215;23;20012;-77
2023/07/06 00:18:10;;;;;;;16.17;6.45;;;;;;;13.31;100.00;101257.84;6246250;23;20011;-77
2023/07/06 00:20:39;;;;;;;10.20;5.93;;;;;;;13.26;100.00;101243.59;6219207;23;20020;-77
2023/07/06 00:23:05;;;;;;;12.63;6.25;;;;;;;13.24;100.00;101233.59;6246526;23;20004;-77
2023/07/06 00:25:33;;;;;;;8.00;5.68;;;;;;;13.19;100.00;101257.88;6246211;23;20004;-77
2023/07/06 00:28:03;;;;;;;13.82;6.40;;;;;;;13.26;100.00;101258.22;6218955;23;20020;-76
2023/07/06 00:30:53;;;;;;;11.82;6.00;;;;;;;13.13;100.00;101263.88;6217774;23;20043;-76
2023/07/06 00:33:20;;;;;;;13.77;6.50;;;;;;;13.06;100.00;101249.75;6219191;23;20004;-77
2023/07/06 00:35:46;;;;;;;16.30;6.30;;;;;;;13.04;100.00;101257.28;6219370;23;20795;-77
2023/07/06 00:38:18;;;;;;;9.02;5.95;;;;;;;13.03;100.00;101246.41;6219220;23;20016;-77
2023/07/06 00:40:46;;;;;;;9.55;6.05;;;;;;;13.03;100.00;101254.66;6246048;23;20016;-77
2023/07/06 00:43:17;;;;;;;10.57;6.50;;;;;;;13.03;100.00;101251.91;6245773;23;20009;-77
2023/07/06 00:45:44;;;;;;;12.75;6.78;;;;;;;12.95;100.00;101243.41;6194078;23;20090;-78
2023/07/06 00:48:35;;;;;;;11.45;6.03;;;;;;;12.99;100.00;101244.94;6219267;23;20031;-77
2023/07/06 00:51:09;;;;;;;12.00;5.97;;;;;;;12.92;100.00;101251.91;6219987;23;20375;-76
2023/07/06 00:53:40;;;;;;;19.88;6.32;;;;;;;12.92;100.00;101250.06;6193572;23;20207;-77
2023/07/06 00:56:08;;;;;;;14.30;5.68;;;;;;;12.99;100.00;101255.91;6246228;23;20012;-77
2023/07/06 00:58:40;;;;;;;13.95;5.63;;;;;;;12.95;100.00;101251.66;6194237;23;20344;-77
2023/07/06 01:01:08;;;;;;;9.32;4.90;;;;;;;12.96;100.00;101253.44;6245540;23;20019;-76
2023/07/06 01:03:44;;;;;;;12.95;5.78;;;;;;;13.05;100.00;101242.53;6194043;23;20016;-76
2023/07/06 01:06:13;;;;;;;11.70;7.03;;;;;;;13.04;100.00;101253.66;6245691;23;20027;-76
2023/07/06 01:08:39;;;;;;;9.88;5.60;;;;;;;12.88;100.00;101248.56;6218688;23;20102;-76
2023/07/06 01:11:08;;;;;;;9.57;5.60;;;;;;;12.83;100.00;101250.81;6218653;23;20043;-76
2023/07/06 01:13:33;;;;;;;18.40;7.53;;;;;;;12.88;100.00;101245.81;6218433;23;20012;-76
2023/07/06 01:16:13;;;;;;;11.25;5.75;;;;;;;12.89;100.00;101247.56;6245689;23;20004;-76
2023/07/06 01:18:45;;;;;;;13.07;5.50;;;;;;;12.83;100.00;101248.94;6220223;23;20443;-76
2023/07/06 01:21:18;;;;;;;10.13;5.60;;;;;;;12.77;100.00;101256.81;6247609;23;20004;-76
2023/07/06 01:23:46;;;;;;;11.98;5.63;;;;;;;12.84;100.00;101253.44;6247323;23;20309;-76
2023/07/06 01:26:18;;;;;;;8.18;5.00;;;;;;;12.76;100.00;101253.19;6195695;23;20011;-76
2023/07/06 01:29:29;;;;;;;11.05;5.55;;;;;;;12.70;100.00;101261.94;6220088;23;20108;-76
2023/07/06 01:32:01;;;;;;;9.75;5.57;;;;;;;12.68;100.00;101253.81;6220492;23;20019;-76
2023/07/06 01:34:53;;;;;;;17.58;7.05;;;;;;;12.64;100.00;101254.19;6220420;23;20004;-75
2023/07/06 01:37:29;;;;;;;9.18;5.75;;;;;;;12.64;100.00;101254.19;6220281;23;20048;-76
2023/07/06 01:39:54;;;;;;;10.57;5.45;;;;;;;12.74;100.00;101251.56;6246965;23;20008;-76
2023/07/06 01:42:30;;;;;;;13.90;4.68;;;;;;;12.83;100.00;101253.56;6247067;23;20459;-76
2023/07/06 01:45:08;;;;;;;7.47;5.03;;;;;;;12.82;100.00;101260.03;6220790;23;20040;-76
2023/07/06 01:47:39;;;;;;;13.02;5.38;;;;;;;12.71;100.00;101258.19;6247195;23;20081;-76
2023/07/06 01:50:06;;;;;;;13.93;5.28;;;;;;;12.78;100.00;101253.94;6220671;23;20383;-76
2023/07/06 01:52:37;;;;;;;10.43;5.03;;;;;;;12.79;100.00;101260.28;6220287;23;20498;-76
2023/07/06 01:55:38;;;;;;;10.05;4.88;;;;;;;12.90;100.00;101251.19;6220409;23;20004;-76
2023/07/06 01:58:15;;;;;;;13.88;4.78;;;;;;;12.84;100.00;101255.31;6167129;23;20086;-76
2023/07/06 02:00:44;;;;;;;8.95;5.25;;;;;;;12.87;100.00;101244.94;6220120;23;20027;-76
2023/07/06 02:03:12;;;;;;;8.63;3.90;;;;;;;12.97;100.00;101256.03;6246698;23;20004;-76
2023/07/06 02:05:40;;;;;;;17.50;4.28;;;;;;;12.94;100.00;101253.56;6194948;23;20022;-76
2023/07/06 02:08:07;;;;;;;9.38;4.32;;;;;;;12.95;100.00;101249.78;6246827;23;20000;-76
2023/07/06 02:10:33;;;;;;;9.82;4.30;;;;;;;13.03;100.00;101254.66;6247054;23;20031;-76
2023/07/06 02:12:58;;;;;;;10.98;4.30;;;;;;;12.83;100.00;101246.19;6219853;23;20008;-76
2023/07/06 02:15:27;;;;;;;10.90;3.85;;;;;;;12.92;100.00;101255.56;6195450;23;20435;-76
2023/07/06 02:17:55;;;;;;;10.27;4.13;;;;;;;12.90;100.00;101246.53;6246859;23;20022;-76
2023/07/06 02:20:20;;;;;;;6.78;4.18;;;;;;;12.84;100.00;101247.94;6246762;23;20019;-76
2023/07/06 02:22:47;;;;;;;8.65;4.25;;;;;;;12.88;100.00;101243.06;6194780;23;20008;-75
2023/07/06 02:25:13;;;;;;;7.80;3.83;;;;;;;12.87;100.00;101244.03;6220034;23;20459;-76
2023/07/06 02:27:39;;;;;;;11.43;4.00;;;;;;;12.84;100.00;101242.44;6194817;23;20014;-76
2023/07/06 02:30:05;;;;;;;8.15;3.85;;;;;;;12.91;100.00;101250.19;6246217;22;20032;-76
2023/07/06 02:32:32;;;;;;;8.93;3.83;;;;;;;12.73;100.00;101236.09;6220430;23;20051;-76
2023/07/06 02:34:58;;;;;;;8.45;4.05;;;;;;;12.68;100.00;101245.56;6220328;23;20015;-76
2023/07/06 02:37:24;;;;;;;13.32;4.25;;;;;;;12.81;100.00;101247.31;6246598;23;20013;-76
2023/07/06 02:39:50;;;;;;;18.15;4.40;;;;;;;12.74;100.00;101248.81;6246389;23;20428;-76
2023/07/06 02:42:17;;;;;;;8.57;3.72;;;;;;;12.64;100.00;101251.44;6219769;23;20163;-76
2023/07/06 02:44:43;;;;;;;9.48;4.85;;;;;;;12.76;100.00;101244.09;6219504;23;20012;-76
2023/07/06 02:47:09;;;;;;;9.45;3.83;;;;;;;12.63;100.00;101246.97;6220031;23;20036;-76
2023/07/06 02:49:35;;;;;;;7.65;3.70;;;;;;;12.58;100.00;101258.31;6246391;23;20004;-76
2023/07/06 02:52:00;;;;;;;20.95;3.63;;;;;;;12.63;100.00;101247.81;6246127;23;20063;-76
2023/07/06 02:54:27;;;;;;;18.13;4.22;;;;;;;12.62;100.00;101248.81;6219800;23;20012;-76
2023/07/06 02:56:52;;;;;;;12.65;3.40;;;;;;;12.58;100.00;101250.06;6219673;23;20348;-76
2023/07/06 02:59:18;;;;;;;14.32;3.47;;;;;;;12.55;100.00;101250.31;6220061;23;20012;-76
2023/07/06 03:01:45;;;;;;;9.90;4.32;;;;;;;12.45;100.00;101250.19;6194295;23;20383;-76
2023/07/06 03:04:11;;;;;;;9.52;3.90;;;;;;;12.47;100.00;101255.56;6219692;23;20004;-76
2023/07/06 03:06:38;;;;;;;11.32;4.50;;;;;;;12.43;100.00;101263.19;6194375;23;20115;-76
2023/07/06 03:09:04;;;;;;;7.20;4.00;;;;;;;12.38;100.00;101261.78;6246110;23;20023;-76
2023/07/06 03:11:31;;;;;;;7.15;3.40;;;;;;;12.29;100.00;101256.03;6194246;23;20098;-76
2023/07/06 03:13:56;;;;;;;15.35;4.43;;;;;;;12.31;100.00;101253.16;6219795;23;20091;-76
2023/07/06 03:16:22;;;;;;;13.88;4.00;;;;;;;12.28;100.00;101261.66;6194355;23;20040;-76
2023/07/06 03:18:48;;;;;;;14.15;4.88;;;;;;;12.27;100.00;101255.28;6220134;23;20034;-76
2023/07/06 03:21:14;;;;;;;8.90;4.72;;;;;;;12.17;100.00;101268.00;6194797;23;20448;-76
2023/07/06 03:23:39;;;;;;;13.13;4.43;;;;;;;12.19;100.00;101268.75;6246494;23;20404;-76
2023/07/06 03:26:06;;;;;;;10.98;4.68;;;;;;;12.18;100.00;101261.50;6194704;23;20019;-76
2023/07/06 03:28:31;;;;;;;8.85;4.35;;;;;;;12.10;100.00;101270.38;6194414;23;20044;-76
2023/07/06 03:30:58;;;;;;;15.00;5.00;;;;;;;12.03;100.00;101269.09;6194337;23;20134;-76
2023/07/06 03:33:24;;;;;;;8.07;4.40;;;;;;;12.01;100.00;101270.22;6219305;23;20008;-75
2023/07/06 03:35:54;;;;;;;6.20;3.85;;;;;;;11.95;100.00;101282.53;6246135;23;20482;-76
2023/07/06 03:38:26;;;;;;;13.55;4.20;;;;;;;11.91;100.00;101284.66;6219278;23;20030;-76
2023/07/06 03:40:52;;;;;;;8.48;4.88;;;;;;;11.91;100.00;101283.75;6219048;23;20419;-76
2023/07/06 03:43:19;;;;;;;8.40;4.03;;;;;;;11.96;100.00;101284.28;6218763;23;20004;-76
2023/07/06 03:45:47;;;;;;;11.07;5.32;;;;;;;11.86;100.00;101278.63;6194750;23;20023;-76
2023/07/06 03:48:16;;;;;;;17.55;6.50;;;;;;;11.92;100.00;101280.94;6246476;23;20000;-76
2023/07/06 03:50:43;;;;;;;12.18;4.63;;;;;;;12.02;100.00;101285.66;6219399;23;20014;-76
2023/07/06 03:53:10;;;;;;;8.10;4.43;;;;;;;12.03;100.00;101277.31;6219532;23;20036;-76
2023/07/06 03:55:35;;;;;;;10.63;4.95;;;;;;;12.01;100.00;101286.69;6194268;23;20012;-76
2023/07/06 03:58:01;;;;;;;17.23;4.53;;;;;;;12.02;100.00;101292.06;6218975;23;20004;-76
2023/07/06 04:00:28;;;;;;;13.27;4.75;;;;;;;12.06;100.00;101287.19;6219338;23;20008;-76
2023/07/06 04:02:57;;;;;;;10.15;4.53;;;;;;;12.17;100.00;101295.47;6218888;23;20022;-76
2023/07/06 04:05:31;;;;;;;14.23;4.30;;;;;;;12.09;100.00;101297.94;6194199;23;20015;-76
2023/07/06 04:07:57;;;;;;;11.80;4.50;;;;;;;12.15;100.00;101294.72;6194493;23;20424;-76
2023/07/06 04:10:23;;;;;;;12.15;4.15;;;;;;;12.27;100.00;101307.47;6194565;23;20092;-76
2023/07/06 04:12:49;;;;;;;7.13;3.83;;;;;;;12.18;100.00;101302.69;6219570;23;20035;-76
2023/07/06 04:15:19;;;;;;;17.60;4.22;;;;;;;12.15;100.00;101297.47;6245753;23;20022;-76
2023/07/06 04:17:47;;;;;;;10.10;4.55;;;;;;;12.22;100.00;101309.69;6193884;23;20032;-76
2023/07/06 04:20:25;;;;;;;8.77;4.28;;;;;;;12.22;100.00;101309.69;6218877;23;20054;-76
2023/07/06 04:22:55;;;;;;;9.93;3.80;;;;;;;12.30;100.00;101309.97;6219184;23;20012;-76
2023/07/06 04:25:31;;;;;;;13.18;4.30;;;;;;;12.25;100.00;101311.34;6218867;23;20095;-75
2023/07/06 04:28:03;;;;;;;13.48;4.35;;;;;;;12.33;100.00;101311.59;6220575;23;20357;-76
2023/07/06 04:30:33;;;;;;;14.65;3.85;;;;;;;12.47;100.00;101314.09;6245497;23;20008;-76
2023/07/06 04:32:59;;;;;;;11.07;3.60;;;;;;;12.46;100.00;101317.88;6246090;23;20032;-76
2023/07/06 04:35:26;;;;;;;9.77;3.85;;;;;;;12.44;100.00;101313.47;6219138;23;20040;-76
2023/07/06 04:37:52;;;;;;;14.25;4.03;;;;;;;12.39;100.00;101311.09;6194209;23;20046;-76
2023/07/06 04:40:19;;;;;;;12.90;3.75;;;;;;;12.44;100.00;101317.09;6245557;23;20008;-76
2023/07/06 04:42:52;;;;;;;15.85;4.15;;;;;;;12.57;100.00;101317.00;6218913;23;20019;-76
2023/07/06 04:45:18;;;;;;;16.17;3.92;;;;;;;12.55;100.00;101312.63;6218399;23;20004;-76
2023/07/06 04:47:45;;;;;;;12.98;3.70;;;;;;;12.54;100.00;101311.75;6218783;23;20302;-76
2023/07/06 04:50:22;;;;;;;10.35;4.10;;;;;;;12.62;100.00;101313.88;6218983;23;20035;-76
2023/07/06 04:52:55;;;;;;;11.15;3.08;;;;;;;12.61;100.00;101313.00;6219943;23;20011;-76
2023/07/06 04:55:24;;;;;;;;;;;;;;;12.57;100.00;101313.38;6247994;23;20039;-76
2023/07/06 04:57:55;;;;;;;15.13;3.78;;;;;;;12.58;100.00;101318.75;6220711;23;19911;-76
2023/07/06 05:00:25;;;;;;;19.92;4.63;;;;;;;12.52;100.00;101323.88;6220653;23;20004;-76
2023/07/06 05:02:58;;;;;;;13.55;3.67;;;;;;;12.63;100.00;101318.38;6220947;23;20149;-76
2023/07/06 05:05:25;;;;;;;17.77;5.70;;;;;;;12.73;100.00;101324.00;6220801;23;20019;-76
2023/07/06 05:07:51;;;;;;;19.63;3.92;;;;;;;12.77;100.00;101325.50;6247352;23;20438;-77
2023/07/06 05:10:17;;;;;;;11.68;3.80;;;;;;;12.94;100.00;101321.41;6221155;23;20098;-76
2023/07/06 05:12:45;;;;;;;14.02;3.65;;;;;;;13.12;100.00;101327.22;6221333;23;20035;-76
2023/07/06 05:15:12;;;;;;;18.27;3.78;;;;;;;13.06;100.00;101328.63;6195570;23;20066;-76
2023/07/06 05:17:39;;;;;;;11.43;3.97;;;;;;;13.18;100.00;101329.47;6195725;23;20016;-76
2023/07/06 05:20:11;;;;;;;16.77;3.88;;;;;;;13.08;100.00;101326.63;6220810;23;20008;-76
2023/07/06 05:22:39;;;;;;;13.25;3.38;;;;;;;13.21;100.00;101331.97;6220498;23;20332;-76
2023/07/06 05:25:10;;;;;;;14.95;3.55;;;;;;;13.21;100.00;101338.34;6196055;23;20012;-76
2023/07/06 05:27:36;;;;;;;11.68;2.95;;;;;;;13.33;100.00;101335.63;6220302;23;20008;-76
2023/07/06 05:30:11;;;;;;;10.45;3.38;;;;;;;13.54;100.00;101339.34;6247337;23;20019;-76
2023/07/06 05:32:36;;;;;;;12.65;3.45;;;;;;;13.83;100.00;101346.13;6247386;23;20039;-76
2023/07/06 05:35:02;;;;;;;16.70;4.28;;;;;;;13.51;100.00;101333.19;6195719;23;20016;-76
2023/07/06 05:37:28;;;;;;;10.88;3.70;;;;;;;13.49;100.00;101338.84;6247460;23;20000;-77
2023/07/06 05:39:54;;;;;;;16.33;3.30;;;;;;;13.55;100.00;101334.72;6220676;23;20023;-76
2023/07/06 05:42:19;;;;;;;9.57;3.60;;;;;;;13.49;100.00;101337.97;6195641;23;20210;-76
2023/07/06 05:44:45;;;;;;;13.77;3.55;;;;;;;13.76;100.00;101340.28;6220339;23;20451;-76
2023/07/06 05:47:12;;;;;;;12.73;3.75;;;;;;;13.87;100.00;101345.75;6247103;23;20031;-76
2023/07/06 05:49:38;;;;;;;12.57;4.15;;;;;;;13.67;100.00;101341.03;6195199;23;20016;-76
2023/07/06 05:52:04;;;;;;;10.82;4.65;;;;;;;13.76;100.00;101351.28;6195887;23;20015;-76
2023/07/06 05:54:30;;;;;;;16.25;4.15;;;;;;;13.58;100.00;101345.47;6220274;23;20397;-76
2023/07/06 05:56:57;;;;;;;18.60;5.63;;;;;;;13.75;100.00;101353.16;6220538;23;20010;-76
2023/07/06 05:59:26;;;;;;;29.38;6.47;;;;;;;13.91;100.00;101360.97;6195298;23;20012;-76
2023/07/06 06:01:52;;;;;;;31.02;5.97;;;;;;;13.91;100.00;101355.47;6247228;23;20015;-76
2023/07/06 06:04:18;;;;;;;21.38;5.57;;;;;;;14.20;100.00;101351.22;6219327;23;20016;-76
2023/07/06 06:06:55;;;;;;;29.10;7.22;;;;;;;14.14;100.00;101356.25;6247419;23;20135;-76
2023/07/06 06:09:23;;;;;;;31.90;7.50;;;;;;;14.19;100.00;101366.00;6195973;23;20016;-76
2023/07/06 06:11:48;;;;;;;31.52;6.90;;;;;;;14.47;100.00;101373.59;6220298;23;20035;-76
2023/07/06 06:14:15;;;;;;;28.38;7.07;;;;;;;14.43;100.00;101368.50;6219917;23;20421;-76
2023/07/06 06:16:40;;;;;;;29.05;6.13;;;;;;;14.56;100.00;101374.69;6194873;23;20012;-76
2023/07/06 06:19:06;;;;;;;21.42;7.25;;;;;;;14.42;100.00;101378.66;6170453;23;20089;-76
2023/07/06 06:21:33;;;;;;;26.23;7.47;;;;;;;14.36;100.00;101379.19;6195616;23;20024;-77
2023/07/06 06:23:59;;;;;;;26.23;7.93;;;;;;;14.75;100.00;101379.47;6195901;23;20035;-76
2023/07/06 06:26:25;;;;;;;24.92;9.35;;;;;;;14.48;100.00;101369.84;6220202;23;20432;-76
2023/07/06 06:28:51;;;;;;;31.80;8.13;;;;;;;14.87;100.00;101386.69;6148825;23;20009;-77
2023/07/06 06:31:17;;;;;;;24.85;8.85;;;;;;;14.58;100.00;101386.47;6209952;23;20084;-76
2023/07/06 06:33:46;;;;;;;23.92;8.18;;;;;;;14.98;100.00;101387.59;6186673;23;20099;-76
2023/07/06 06:36:18;;;;;;;34.75;10.18;;;;;;;14.88;100.00;101391.16;6184778;23;20008;-76
2023/07/06 06:38:44;;;;;;;22.35;8.52;;;;;;;15.14;100.00;101392.63;6186293;23;20009;-77
2023/07/06 06:41:11;;;;;;;25.85;10.00;;;;;;;15.34;100.00;101383.38;6186160;23;20428;-76
2023/07/06 06:43:44;;;;;;;26.90;9.30;;;;;;;15.30;100.00;101392.06;6184781;23;20009;-76
2023/07/06 06:46:11;;;;;;;29.75;10.55;;;;;;;15.36;100.00;101392.38;6186140;23;20032;-76
2023/07/06 06:48:39;;;;;;;37.30;11.40;;;;;;;15.07;100.00;101400.56;6185867;23;20036;-76
2023/07/06 06:51:07;;;;;;;31.70;10.10;;;;;;;15.03;100.00;101401.84;6159421;23;20068;-76
2023/07/06 06:53:34;;;;;;;28.70;10.77;;;;;;;15.26;100.00;101399.75;6184568;23;20017;-76
2023/07/06 06:55:59;;;;;;;35.00;11.70;;;;;;;15.42;100.00;101402.88;6186150;23;20034;-76
2023/07/06 06:58:25;;;;;;;30.50;12.27;;;;;;;16.26;100.00;101401.59;6184303;23;20010;-76
2023/07/06 07:00:58;;;;;;;27.98;10.38;;;;;;;16.95;100.00;101399.66;6185886;23;20066;-76
2023/07/06 07:03:23;;;;;;;;;;;;;;;17.58;100.00;101393.44;6160533;23;20087;-76
2023/07/06 07:06:01;;;;;;;33.47;9.82;;;;;;;17.73;100.00;101392.94;6159742;23;19946;-76
2023/07/06 07:08:27;;;;;;;29.80;9.90;;;;;;;17.50;100.00;101407.19;6184474;23;20009;-76
2023/07/06 07:10:57;;;;;;;31.40;9.88;;;;;;;17.84;100.00;101403.78;6184540;23;20069;-76
2023/07/06 07:13:25;;;;;;;31.90;10.25;;;;;;;17.20;100.00;101406.44;6185899;23;20016;-76
2023/07/06 07:15:51;;;;;;;30.65;10.60;;;;;;;16.68;100.00;101401.28;6185944;23;20016;-76
2023/07/06 07:18:18;;;;;;;31.73;10.50;;;;;;;16.98;100.00;101399.38;6185791;23;20329;-76
2023/07/06 07:20:43;;;;;;;24.23;10.80;;;;;;;16.86;100.00;101406.09;6158876;23;20401;-76
2023/07/06 07:23:10;;;;;;;31.83;11.52;;;;;;;17.52;100.00;101409.78;6184312;23;20021;-76
2023/07/06 07:25:38;;;;;;;28.02;10.98;;;;;;;18.02;100.00;101414.94;6159505;23;20473;-76
2023/07/06 07:28:05;;;;;;;33.33;10.27;;;;;;;17.28;100.00;101405.66;6184245;23;20040;-76
2023/07/06 07:30:31;;;;;;;28.10;9.48;;;;;;;18.06;100.00;101415.47;6110822;23;20020;-75
2023/07/06 07:32:57;;;;;;;29.80;10.63;;;;;;;17.54;100.00;101425.22;6159315;23;20013;-76
2023/07/06 07:35:23;;;;;;;25.58;10.52;;;;;;;17.01;100.00;101417.56;6185458;23;20031;-76
2023/07/06 07:37:50;;;;;;;28.60;11.70;;;;;;;16.86;100.00;101419.94;6159329;23;20433;-76
2023/07/06 07:40:19;;;;;;;28.08;10.93;;;;;;;17.00;100.00;101424.13;6135369;23;20040;-76
2023/07/06 07:42:46;;;;;;;25.80;11.65;;;;;;;17.04;100.00;101422.81;6158760;23;20009;-75
2023/07/06 07:45:13;;;;;;;27.10;11.23;;;;;;;18.12;100.00;101420.41;6185871;23;20055;-75
2023/07/06 07:47:39;;;;;;;28.67;9.93;;;;;;;18.86;100.00;101419.19;6183889;23;20009;-76
2023/07/06 07:50:06;;;;;;;28.50;10.63;;;;;;;18.63;100.00;101423.50;6184111;23;20456;-75
2023/07/06 07:52:32;;;;;;;28.60;9.95;;;;;;;18.50;100.00;101430.28;6159202;23;20013;-74
2023/07/06 07:54:57;;;;;;;28.23;10.60;;;;;;;18.98;100.00;101430.88;6159178;23;20009;-75
2023/07/06 07:57:23;;;;;;;25.05;10.60;;;;;;;19.38;100.00;101432.19;6183980;23;20005;-76
2023/07/06 07:59:51;;;;;;;21.70;8.10;;;;;;;19.67;100.00;101427.28;6185110;23;20453;-76
2023/07/06 08:02:17;;;;;;;17.20;8.60;;;;;;;20.25;100.00;101432.00;6159414;23;20060;-75
2023/07/06 08:04:43;;;;;;;28.05;9.07;;;;;;;20.22;100.00;101428.69;6134523;23;20020;-76
2023/07/06 08:07:09;;;;;;;21.40;9.10;;;;;;;19.28;100.00;101426.75;6183946;23;20009;-75
2023/07/06 08:09:35;;;;;;;21.80;9.07;;;;;;;19.06;100.00;101427.31;6159302;23;20017;-75
2023/07/06 08:12:05;;;;;;;24.70;9.65;;;;;;;19.15;100.00;101428.22;6159120;23;20051;-75
2023/07/06 08:14:37;;;;;;;21.60;9.82;;;;;;;19.08;100.00;101437.19;6184121;23;20012;-74
2023/07/06 08:17:04;;;;;;;22.10;9.33;;;;;;;18.19;100.00;101427.91;6185203;23;20001;-75
2023/07/06 08:19:32;;;;;;;23.33;8.40;;;;;;;18.12;100.00;101434.28;6185317;23;20712;-75
2023/07/06 08:21:58;;;;;;;20.15;8.57;;;;;;;17.83;100.00;101447.22;6183721;23;20024;-75
2023/07/06 08:24:24;;;;;;;28.10;8.85;;;;;;;17.94;100.00;101443.41;6183496;23;20317;-75
2023/07/06 08:26:50;;;;;;;18.73;7.80;;;;;;;18.96;100.00;101446.84;6183307;23;20017;-75
2023/07/06 08:29:16;;;;;;;23.98;8.07;;;;;;;19.32;100.00;101446.72;6205124;23;20464;-76
2023/07/06 08:31:45;;;;;;;18.08;7.50;;;;;;;19.81;100.00;101458.13;6214290;23;20031;-75
2023/07/06 08:34:12;;;;;;;21.42;7.53;;;;;;;19.44;100.00;101450.94;6239166;23;20372;-76
2023/07/06 08:36:37;;;;;;;24.50;7.78;;;;;;;19.17;100.00;101459.44;6188433;23;20012;-75
2023/07/06 08:39:05;;;;;;;21.20;6.28;;;;;;;20.18;100.00;101459.63;6188662;23;20459;-75
2023/07/06 08:41:37;;;;;;;20.77;6.63;;;;;;;19.67;100.00;101463.41;6213630;23;20147;-76
2023/07/06 08:44:05;;;;;;;22.05;6.60;;;;;;;19.98;100.00;101458.19;6215135;23;20440;-75
2023/07/06 08:46:37;;;;;;;18.30;5.55;;;;;;;20.28;100.00;101456.69;6213251;23;20425;-76
2023/07/06 08:49:12;;;;;;;22.92;6.20;;;;;;;20.00;100.00;101456.97;6215203;23;20076;-75
2023/07/06 08:51:38;;;;;;;16.77;5.47;;;;;;;21.01;100.00;101456.94;6215336;23;20067;-76
2023/07/06 08:54:23;;;;;;;16.20;5.57;;;;;;;21.21;100.00;101455.50;6164286;23;20050;-75
2023/07/06 08:56:49;;;;;;;18.15;5.25;;;;;;;21.20;100.00;101466.81;6215882;23;20004;-75
2023/07/06 08:59:33;;;;;;;16.50;5.15;;;;;;;21.88;100.00;101465.44;6216384;23;20035;-74
2023/07/06 09:02:17;;;;;;;12.35;4.50;;;;;;;21.20;100.00;101467.72;6188790;23;20039;-76
2023/07/06 09:04:44;;;;;;;17.05;5.55;;;;;;;21.42;100.00;101473.59;6213804;23;20058;-76
2023/07/06 09:07:12;;;;;;;20.42;6.13;;;;;;;20.90;100.00;101474.88;6214896;23;20306;-76
2023/07/06 09:09:47;;;;;;;16.85;4.85;;;;;;;20.82;100.00;101472.94;6214798;23;20065;-76
2023/07/06 09:12:19;;;;;;;16.80;5.07;;;;;;;20.61;100.00;101470.66;6213414;23;20020;-76
2023/07/06 09:14:49;;;;;;;16.75;4.80;;;;;;;20.83;100.00;101477.47;6213559;23;20055;-75
2023/07/06 09:17:19;;;;;;;15.35;5.03;;;;;;;20.15;100.00;101481.31;6213411;23;20016;-75
2023/07/06 09:19:44;;;;;;;15.88;4.65;;;;;;;20.71;100.00;101476.06;6213553;23;20008;-75
2023/07/06 09:22:11;;;;;;;12.18;4.45;;;;;;;21.15;100.00;101478.50;6213465;23;20009;-76
2023/07/06 09:24:37;;;;;;;15.15;5.05;;;;;;;22.24;97.20;101473.28;6189592;23;20576;-74
2023/07/06 09:27:16;;;;;;;10.20;4.50;;;;;;;22.42;95.51;101472.16;6216333;23;20008;-75
2023/07/06 09:29:55;;;;;;;11.45;3.75;;;;;;;21.70;94.32;101478.78;6213909;23;20012;-75
2023/07/06 09:32:21;;;;;;;12.90;4.40;;;;;;;20.83;99.92;101473.84;6192167;23;20441;-75
2023/07/06 09:34:56;;;;;;;11.27;3.55;;;;;;;21.53;96.38;101486.28;6214715;23;20432;-75
2023/07/06 09:37:22;;;;;;;10.82;3.85;;;;;;;22.17;89.91;101477.88;6189382;23;20403;-76
2023/07/06 09:39:58;;;;;;;10.68;3.40;;;;;;;22.17;86.78;101477.88;6216219;23;20024;-75
2023/07/06 09:42:25;;;;;;;7.53;2.85;;;;;;;22.33;86.48;101476.91;6217511;23;20008;-75
2023/07/06 09:44:51;;;;;;;11.60;3.78;;;;;;;21.57;88.23;101482.13;6165667;23;20016;-74
2023/07/06 09:47:17;;;;;;;9.85;3.03;;;;;;;22.06;87.37;101481.91;6191115;23;20104;-76
2023/07/06 09:49:49;;;;;;;9.95;2.78;;;;;;;22.52;84.89;101476.44;6191059;23;20016;-75
2023/07/06 09:52:17;;;;;;;10.33;3.10;;;;;;;22.07;88.03;101482.78;6218018;23;20012;-76
2023/07/06 09:54:54;;;;;;;8.15;3.08;;;;;;;22.50;85.04;101489.72;6216914;23;20005;-76
2023/07/06 09:57:19;;;;;;;12.88;3.13;;;;;;;21.27;89.81;101481.81;6191448;23;20000;-76
2023/07/06 09:59:48;;;;;;;14.95;3.10;;;;;;;21.39;90.91;101488.72;6191274;23;20443;-76
2023/07/06 10:02:34;;;;;;;12.25;3.05;;;;;;;21.66;87.17;101487.47;6191226;23;20016;-75
2023/07/06 10:05:12;;;;;;;15.02;3.13;;;;;;;21.92;88.84;101483.53;6216476;23;20340;-76
2023/07/06 10:07:56;;;;;;;12.77;3.80;;;;;;;21.26;92.99;101480.06;6216459;23;20001;-76
2023/07/06 10:10:50;;;;;;;10.02;3.30;;;;;;;21.55;92.67;101478.66;6215866;23;20097;-75
2023/07/06 10:13:26;;;;;;;14.57;3.17;;;;;;;21.28;91.03;101481.63;6191442;23;20015;-76
2023/07/06 10:16:28;;;;;;;12.00;3.50;;;;;;;21.50;93.18;101479.16;6216504;23;20421;-76
2023/07/06 10:19:22;;;;;;;8.32;3.20;;;;;;;21.36;84.84;101479.88;6190390;23;20058;-76
2023/07/06 10:21:54;;;;;;;14.77;2.90;;;;;;;21.89;88.54;101488.59;6213090;23;20028;-76
2023/07/06 10:24:51;;;;;;;10.70;2.60;;;;;;;21.82;85.09;101482.88;6215886;23;20421;-76
2023/07/06 10:27:26;;;;;;;11.23;2.03;;;;;;;22.16;85.68;101479.75;6217567;23;20315;-76
2023/07/06 10:29:57;;;;;;;12.13;2.70;;;;;;;22.54;82.10;101473.47;6190376;23;20013;-76
2023/07/06 10:32:30;;;;;;;;;;;;;;;22.06;82.61;101475.47;6216167;23;20024;-76
2023/07/06 10:35:18;;;;;;;9.65;2.60;;;;;;;22.03;85.09;101471.97;6215709;23;19911;-76
2023/07/06 10:37:44;;;;;;;8.70;2.47;;;;;;;22.39;84.56;101473.38;6191061;23;20008;-76
2023/07/06 10:40:19;;;;;;;6.25;2.40;;;;;;;22.94;83.92;101474.19;6215713;23;20402;-76
2023/07/06 10:42:49;;;;;;;14.73;3.58;;;;;;;22.65;78.81;101470.25;6215240;23;20040;-76
2023/07/06 10:45:32;;;;;;;5.82;2.28;;;;;;;23.44;77.17;101477.41;6166789;23;20008;-76
2023/07/06 10:48:24;;;;;;;5.50;1.90;;;;;;;23.56;72.36;101478.66;6190431;23;20015;-76
2023/07/06 10:50:51;;;;;;;9.68;2.40;;;;;;;23.23;72.86;101478.16;6216449;23;20458;-75
2023/07/06 10:53:32;;;;;;;4.47;1.90;;;;;;;23.22;73.76;101480.06;6215697;23;20019;-75
2023/07/06 10:56:12;;;;;;;7.65;2.28;;;;;;;23.27;73.60;101473.94;6217874;23;20009;-75
2023/07/06 10:58:54;;;;;;;9.48;2.45;;;;;;;23.56;69.00;101472.19;6215836;23;20016;-75
2023/07/06 11:01:22;;;;;;;4.18;1.50;;;;;;;23.85;69.61;101469.41;6191396;23;20011;-75
2023/07/06 11:03:47;;;;;;;5.50;1.58;;;;;;;24.54;63.49;101470.91;6217283;23;20062;-74
2023/07/06 11:06:33;;;;;;;10.23;2.13;;;;;;;23.84;64.19;101470.50;6215856;23;20095;-76
2023/07/06 11:09:16;;;;;;;5.07;1.20;;;;;;;23.49;62.42;101480.50;6217473;23;20004;-76
2023/07/06 11:12:01;;;;;;;7.05;1.50;;;;;;;23.73;63.52;101475.69;6190843;23;20047;-76
2023/07/06 11:14:38;;;;;;;6.30;1.40;;;;;;;24.07;62.45;101477.91;6191094;23;20099;-76
2023/07/06 11:17:13;;;;;;;4.30;1.20;;;;;;;24.34;60.87;101483.81;6215468;23;20005;-76
2023/07/06 11:19:48;;;;;;;6.28;1.13;;;;;;;23.38;61.75;101466.97;6215860;23;20088;-75
2023/07/06 11:22:18;;;;;;;7.38;1.88;;;;;;;23.42;62.48;101472.00;6217317;23;20008;-75
2023/07/06 11:24:49;;;;;;;7.85;1.92;;;;;;;23.73;62.47;101476.56;6215353;23;20004;-76